createdAt,value
2022-10-14T00:05:12.449Z,9.92
2022-10-14T00:08:12.020Z,9.88
2022-10-14T00:10:42.338Z,9.84
2022-10-14T00:13:13.323Z,9.80
2022-10-14T00:15:42.312Z,9.78
2022-10-14T00:18:11.330Z,9.74
2022-10-14T00:36:24.678Z,9.75
2022-10-14T01:19:52.102Z,10.17
2022-10-14T01:22:32.421Z,10.16
2022-10-14T01:25:09.407Z,10.16
2022-10-14T01:28:15.969Z,10.17
2022-10-14T01:31:06.214Z,10.19
2022-10-14T01:33:40.359Z,10.19
2022-10-14T01:36:28.168Z,10.18
2022-10-14T01:39:15.992Z,10.15
2022-10-14T01:41:49.975Z,10.11
2022-10-14T01:44:22.597Z,10.09
2022-10-14T01:46:53.968Z,10.11
2022-10-14T01:49:45.012Z,10.12
2022-10-14T01:52:28.022Z,10.13
2022-10-14T01:55:00.038Z,10.12
2022-10-14T01:57:31.903Z,10.10
2022-10-14T02:00:02.132Z,10.08
2022-10-14T02:03:15.093Z,10.10
2022-10-14T02:06:03.711Z,10.11
2022-10-14T02:09:05.801Z,10.12
2022-10-14T02:11:45.959Z,10.09
2022-10-14T02:14:31.462Z,10.06
2022-10-14T02:17:07.191Z,10.03
2022-10-14T02:20:12.038Z,9.99
2022-10-14T02:22:50.510Z,9.98
2022-10-14T02:25:24.115Z,10.03
2022-10-14T02:27:53.324Z,10.06
2022-10-14T02:30:21.740Z,10.03
2022-10-14T02:33:00.518Z,10.01
2022-10-14T02:35:31.589Z,9.98
2022-10-14T02:38:00.553Z,9.96
2022-10-14T02:40:39.480Z,9.94
2022-10-14T02:43:10.216Z,9.93
2022-10-14T02:45:39.465Z,9.95
2022-10-14T02:48:08.656Z,9.95
2022-10-14T02:50:38.359Z,9.95
2022-10-14T02:53:06.220Z,9.95
2022-10-14T02:55:34.087Z,9.92
2022-10-14T02:58:02.055Z,9.87
2022-10-14T03:00:31.370Z,9.85
2022-10-14T03:02:59.520Z,9.84
2022-10-14T03:05:27.662Z,9.83
2022-10-14T03:07:55.810Z,9.82
2022-10-14T03:10:24.771Z,9.80
2022-10-14T03:12:52.717Z,9.82
2022-10-14T03:15:27.283Z,9.80
2022-10-14T03:17:55.461Z,9.78
2022-10-14T03:20:27.881Z,9.78
2022-10-14T03:22:57.518Z,9.82
2022-10-14T03:25:26.327Z,9.82
2022-10-14T03:28:14.602Z,9.85
2022-10-14T03:35:45.321Z,9.91
2022-10-14T03:38:17.406Z,9.92
2022-10-14T03:40:46.594Z,9.96
2022-10-14T03:43:14.677Z,9.98
2022-10-14T03:45:54.898Z,10.00
2022-10-14T03:48:24.828Z,10.03
2022-10-14T03:50:56.888Z,10.06
2022-10-14T03:53:25.150Z,10.08
2022-10-14T03:55:53.398Z,10.12
2022-10-14T03:58:22.441Z,10.14
2022-10-14T04:00:54.171Z,10.16
2022-10-14T04:04:00.433Z,10.18
2022-10-14T04:06:28.698Z,10.19
2022-10-14T04:08:58.352Z,10.21
2022-10-14T04:11:29.679Z,10.22
2022-10-14T04:14:02.540Z,10.22
2022-10-14T04:16:31.668Z,10.23
2022-10-14T04:19:07.573Z,10.26
2022-10-14T04:21:35.511Z,10.29
2022-10-14T04:24:08.055Z,10.31
2022-10-14T04:26:52.827Z,10.31
2022-10-14T04:29:31.533Z,10.27
2022-10-14T04:32:04.451Z,10.22
2022-10-14T04:34:35.764Z,10.18
2022-10-14T04:37:03.770Z,10.15
2022-10-14T04:40:05.387Z,10.05
2022-10-14T04:42:34.068Z,9.96
2022-10-14T04:45:05.365Z,9.92
2022-10-14T04:47:48.337Z,9.90
2022-10-14T04:50:18.624Z,9.87
2022-10-14T04:53:10.589Z,9.84
2022-10-14T04:55:49.705Z,9.80
2022-10-14T04:58:18.275Z,9.76
2022-10-14T05:00:48.093Z,9.73
2022-10-14T05:03:32.500Z,9.71
2022-10-14T05:06:00.749Z,9.71
2022-10-14T05:08:28.686Z,9.70
2022-10-14T05:11:00.193Z,9.74
2022-10-14T05:13:44.122Z,9.77
2022-10-14T05:16:12.064Z,9.79
2022-10-14T05:18:41.495Z,9.81
2022-10-14T05:21:11.808Z,9.84
2022-10-14T05:24:05.820Z,9.90
2022-10-14T05:26:34.469Z,9.96
2022-10-14T05:29:04.996Z,10.04
2022-10-14T05:31:32.946Z,10.13
2022-10-14T05:34:14.115Z,10.20
2022-10-14T05:36:41.956Z,10.24
2022-10-14T05:39:11.611Z,10.26
2022-10-14T05:41:39.994Z,10.28
2022-10-14T05:44:10.812Z,10.30
2022-10-14T05:46:39.129Z,10.31
2022-10-14T05:49:07.050Z,10.32
2022-10-14T05:51:36.638Z,10.37
2022-10-14T05:54:11.552Z,10.46
2022-10-14T05:56:42.203Z,10.51
2022-10-14T05:59:11.220Z,10.54
2022-10-14T06:01:40.436Z,10.61
2022-10-14T06:04:08.400Z,10.68
2022-10-14T06:06:36.296Z,10.76
2022-10-14T06:09:08.965Z,10.79
2022-10-14T06:11:39.593Z,10.76
2022-10-14T06:14:07.813Z,10.73
2022-10-14T06:16:35.877Z,10.80
2022-10-14T06:19:05.751Z,10.88
2022-10-14T06:21:33.642Z,10.93
2022-10-14T06:24:01.664Z,10.97
2022-10-14T06:26:29.638Z,11.00
2022-10-14T06:28:57.655Z,11.01
2022-10-14T06:31:29.842Z,10.99
2022-10-14T06:34:00.860Z,10.99
2022-10-14T06:36:28.682Z,10.97
2022-10-14T06:38:56.609Z,10.95
2022-10-14T06:41:24.771Z,10.95
2022-10-14T06:43:53.158Z,10.95
2022-10-14T06:46:21.112Z,10.89
2022-10-14T06:48:50.449Z,10.83
2022-10-14T06:51:18.611Z,10.78
2022-10-14T06:53:46.416Z,10.71
2022-10-14T06:56:14.720Z,10.66
2022-10-14T06:58:42.625Z,10.63
2022-10-14T07:01:10.438Z,10.63
2022-10-14T07:03:39.450Z,10.62
2022-10-14T07:06:08.683Z,10.60
2022-10-14T07:08:36.672Z,10.57
2022-10-14T07:11:05.696Z,10.54
2022-10-14T07:13:36.469Z,10.51
2022-10-14T07:16:04.950Z,10.50
2022-10-14T07:18:32.923Z,10.48
2022-10-14T07:21:05.117Z,10.44
2022-10-14T07:23:33.086Z,10.43
2022-10-14T07:26:01.367Z,10.48
2022-10-14T07:28:29.545Z,10.55
2022-10-14T07:31:03.048Z,10.59
2022-10-14T07:33:31.153Z,10.63
2022-10-14T07:36:05.480Z,10.69
2022-10-14T07:38:34.012Z,10.74
2022-10-14T07:41:05.282Z,10.85
2022-10-14T07:43:34.406Z,10.99
2022-10-14T07:46:07.565Z,11.15
2022-10-14T07:48:52.597Z,11.26
2022-10-14T07:51:24.802Z,11.37
2022-10-14T07:53:53.391Z,11.45
2022-10-14T07:56:22.522Z,11.53
2022-10-14T07:58:50.479Z,11.68
2022-10-14T08:01:19.520Z,11.82
2022-10-14T08:03:48.550Z,11.91
2022-10-14T08:06:16.942Z,11.98
2022-10-14T08:08:45.125Z,12.09
2022-10-14T08:11:20.479Z,12.24
2022-10-14T08:13:49.872Z,12.35
2022-10-14T08:16:27.368Z,12.46
2022-10-14T08:18:57.815Z,12.54
2022-10-14T08:21:26.232Z,12.61
2022-10-14T08:23:55.123Z,12.72
2022-10-14T08:26:25.902Z,12.83
2022-10-14T08:28:53.835Z,12.90
2022-10-14T08:31:22.158Z,12.97
2022-10-14T08:33:50.182Z,13.00
2022-10-14T08:36:19.501Z,12.96
2022-10-14T08:38:48.756Z,12.96
2022-10-14T08:41:26.156Z,12.95
2022-10-14T08:44:13.070Z,12.91
2022-10-14T08:46:51.096Z,12.88
2022-10-14T08:49:42.252Z,12.86
2022-10-14T08:52:18.202Z,12.86
2022-10-14T08:54:51.374Z,12.88
2022-10-14T08:57:21.932Z,12.92
2022-10-14T08:59:49.911Z,12.94
2022-10-14T09:02:35.059Z,12.99
2022-10-14T09:05:05.114Z,13.03
2022-10-14T09:07:35.824Z,13.05
2022-10-14T09:10:11.530Z,13.07
2022-10-14T09:12:40.518Z,13.12
2022-10-14T09:15:09.244Z,13.24
2022-10-14T09:17:48.520Z,13.36
2022-10-14T09:20:22.258Z,13.50
2022-10-14T09:22:55.483Z,13.67
2022-10-14T09:25:23.389Z,13.83
2022-10-14T09:27:51.472Z,13.94
2022-10-14T09:30:19.410Z,14.02
2022-10-14T09:32:55.680Z,14.11
2022-10-14T09:35:29.595Z,14.24
2022-10-14T09:37:57.427Z,14.30
2022-10-14T09:40:37.569Z,14.32
2022-10-14T09:43:08.447Z,14.42
2022-10-14T09:45:59.882Z,14.58
2022-10-14T09:48:33.905Z,14.68
2022-10-14T09:51:05.338Z,14.74
2022-10-14T09:53:45.473Z,14.83
2022-10-14T09:56:13.648Z,14.88
2022-10-14T09:58:55.433Z,14.94
2022-10-14T10:01:27.663Z,14.94
2022-10-14T10:03:56.623Z,14.98
2022-10-14T10:06:26.765Z,15.04
2022-10-14T10:08:56.562Z,15.10
2022-10-14T10:11:37.484Z,15.06
2022-10-14T10:14:28.608Z,15.02
2022-10-14T10:17:08.777Z,15.00
2022-10-14T10:19:43.738Z,15.02
2022-10-14T10:22:36.769Z,15.12
2022-10-14T10:25:06.042Z,15.20
2022-10-14T10:27:36.644Z,15.14
2022-10-14T10:30:27.471Z,14.99
2022-10-14T10:33:20.588Z,15.00
2022-10-14T10:36:15.376Z,15.18
2022-10-14T10:39:05.848Z,15.38
2022-10-14T10:41:58.730Z,15.58
2022-10-14T10:44:48.185Z,15.83
2022-10-14T10:48:02.637Z,15.92
2022-10-14T10:50:43.135Z,15.80
2022-10-14T10:53:27.330Z,15.68
2022-10-14T10:56:16.224Z,15.58
2022-10-14T10:58:58.992Z,15.40
2022-10-14T11:01:56.811Z,15.20
2022-10-14T11:04:33.914Z,15.19
2022-10-14T11:07:42.475Z,15.33
2022-10-14T11:10:48.699Z,15.40
2022-10-14T11:13:42.110Z,15.25
2022-10-14T11:16:34.328Z,15.18
2022-10-14T11:19:15.045Z,15.25
2022-10-14T11:21:51.905Z,15.35
2022-10-14T11:24:39.989Z,15.27
2022-10-14T11:27:24.052Z,15.07
2022-10-14T11:30:13.737Z,14.98
2022-10-14T11:32:50.332Z,14.93
2022-10-14T11:35:18.016Z,14.88
2022-10-14T11:38:07.847Z,14.84
2022-10-14T11:40:41.644Z,14.92
2022-10-14T11:43:13.632Z,14.96
2022-10-14T11:45:47.253Z,14.88
2022-10-14T11:48:38.420Z,14.84
2022-10-14T11:51:12.580Z,14.89
2022-10-14T11:54:11.282Z,15.00
2022-10-14T11:56:53.159Z,15.00
2022-10-14T11:59:56.936Z,14.97
2022-10-14T12:02:52.809Z,14.97
2022-10-14T12:05:41.460Z,14.99
2022-10-14T12:08:30.404Z,15.05
2022-10-14T12:11:38.838Z,15.04
2022-10-14T12:14:20.141Z,15.04
2022-10-14T12:16:49.278Z,15.11
2022-10-14T12:19:27.476Z,15.14
2022-10-14T12:22:05.062Z,15.18
2022-10-14T12:24:38.527Z,15.15
2022-10-14T12:27:11.583Z,15.16
2022-10-14T12:29:59.158Z,15.24
2022-10-14T12:32:30.694Z,15.20
2022-10-14T12:35:04.417Z,15.11
2022-10-14T12:37:34.976Z,15.05
2022-10-14T12:40:03.550Z,14.99
2022-10-14T12:42:38.928Z,14.90
2022-10-14T12:45:22.478Z,14.80
2022-10-14T12:48:05.900Z,14.74
2022-10-14T12:50:39.725Z,14.72
2022-10-14T12:53:24.224Z,14.73
2022-10-14T12:55:55.534Z,14.76
2022-10-14T12:58:30.840Z,14.79
2022-10-14T13:01:22.182Z,14.81
2022-10-14T13:04:07.517Z,14.86
2022-10-14T13:06:37.338Z,14.90
2022-10-14T13:09:11.322Z,14.92
2022-10-14T13:11:41.573Z,14.91
2022-10-14T13:14:26.101Z,14.89
2022-10-14T13:17:24.481Z,14.85
2022-10-14T13:19:52.568Z,14.80
2022-10-14T13:22:33.122Z,14.77
2022-10-14T13:25:12.952Z,14.76
2022-10-14T13:27:46.047Z,14.75
2022-10-14T13:31:20.271Z,14.74
2022-10-14T13:33:54.143Z,14.72
2022-10-14T13:36:42.317Z,14.70
2022-10-14T13:39:10.505Z,14.69
2022-10-14T13:41:40.725Z,14.68
2022-10-14T13:44:12.440Z,14.69
2022-10-14T13:46:48.106Z,14.70
2022-10-14T13:49:36.427Z,14.72
2022-10-14T13:52:07.965Z,14.72
2022-10-14T13:54:35.867Z,14.71
2022-10-14T14:00:40.115Z,14.68
2022-10-14T14:03:27.087Z,14.70
2022-10-14T14:05:56.897Z,14.72
2022-10-14T14:08:39.095Z,14.74
2022-10-14T14:11:18.404Z,14.78
2022-10-14T14:14:08.954Z,14.82
2022-10-14T14:16:48.513Z,14.87
2022-10-14T14:19:30.559Z,14.94
2022-10-14T14:22:27.188Z,14.99
2022-10-14T14:25:33.596Z,15.06
2022-10-14T14:28:05.900Z,15.12
2022-10-14T14:30:37.192Z,15.13
2022-10-14T14:33:11.590Z,15.14
2022-10-14T14:35:43.954Z,15.19
2022-10-14T14:38:26.566Z,15.23
2022-10-14T14:41:25.646Z,15.25
2022-10-14T14:44:20.954Z,15.23
2022-10-14T14:46:46.960Z,15.22
2022-10-14T14:49:17.795Z,15.20
2022-10-14T14:51:49.420Z,15.12
2022-10-14T14:54:19.970Z,15.04
2022-10-14T14:57:00.695Z,14.99
2022-10-14T15:00:02.029Z,14.96
2022-10-14T15:02:33.782Z,14.91
2022-10-14T15:05:07.267Z,14.90
2022-10-14T15:07:36.314Z,14.89
2022-10-14T15:10:07.819Z,14.87
2022-10-14T15:12:42.114Z,14.83
2022-10-14T15:15:27.413Z,14.77
2022-10-14T15:18:13.738Z,14.69
2022-10-14T15:20:43.341Z,14.61
2022-10-14T15:24:00.376Z,14.55
2022-10-14T15:26:28.262Z,14.45
2022-10-14T15:29:22.706Z,14.35
2022-10-14T15:32:06.143Z,14.24
2022-10-14T15:34:37.572Z,14.17
2022-10-14T15:37:05.509Z,14.10
2022-10-14T15:39:33.376Z,14.03
2022-10-14T15:42:01.883Z,13.97
2022-10-14T15:44:29.872Z,13.91
2022-10-14T15:47:16.352Z,13.82
2022-10-14T15:49:45.906Z,13.71
2022-10-14T15:52:16.631Z,13.64
2022-10-14T15:54:45.952Z,13.58
2022-10-14T15:57:16.802Z,13.53
2022-10-14T15:59:48.610Z,13.50
2022-10-14T16:02:26.204Z,13.45
2022-10-14T16:05:18.831Z,13.42
2022-10-14T16:07:41.974Z,13.39
2022-10-14T16:10:13.274Z,13.36
2022-10-14T16:12:41.233Z,13.36
2022-10-14T16:15:34.285Z,13.33
2022-10-14T16:18:02.283Z,13.30
2022-10-14T16:20:30.838Z,13.28
2022-10-14T16:22:58.892Z,13.28
2022-10-14T16:25:44.577Z,13.28
2022-10-14T16:28:13.506Z,13.25
2022-10-14T16:30:48.640Z,13.20
2022-10-14T16:33:24.535Z,13.10
2022-10-14T16:35:56.844Z,13.02
2022-10-14T16:38:24.855Z,13.00
2022-10-14T16:40:57.384Z,12.98
2022-10-14T16:43:26.413Z,12.90
2022-10-14T16:45:59.966Z,12.79
2022-10-14T16:48:27.951Z,12.75
2022-10-14T16:50:56.248Z,12.69
2022-10-14T16:53:40.897Z,12.62
2022-10-14T16:56:32.252Z,12.55
2022-10-14T16:59:00.927Z,12.44
2022-10-14T17:01:29.430Z,12.36
2022-10-14T17:03:57.953Z,12.26
2022-10-14T17:06:26.553Z,12.17
2022-10-14T17:08:54.874Z,12.01
2022-10-14T17:11:24.107Z,11.93
2022-10-14T17:13:53.621Z,11.88
2022-10-14T17:16:21.945Z,11.82
2022-10-14T17:18:49.823Z,11.71
2022-10-14T17:21:18.444Z,11.63
2022-10-14T17:23:46.839Z,11.56
2022-10-14T17:26:18.501Z,11.52
2022-10-14T17:28:47.775Z,11.45
2022-10-14T17:31:19.250Z,11.39
2022-10-14T17:33:47.513Z,11.34
2022-10-14T17:36:21.316Z,11.30
2022-10-14T17:38:51.023Z,11.25
2022-10-14T17:41:20.740Z,11.20
2022-10-14T17:43:54.190Z,11.16
2022-10-14T17:46:25.070Z,11.14
2022-10-14T17:48:56.307Z,11.10
2022-10-14T17:51:25.611Z,11.11
2022-10-14T17:53:59.285Z,11.11
2022-10-14T17:56:29.205Z,11.10
2022-10-14T17:59:00.562Z,11.08
2022-10-14T18:01:37.784Z,11.07
2022-10-14T18:04:11.735Z,11.06
2022-10-14T18:06:40.440Z,11.03
2022-10-14T18:09:09.629Z,11.02
2022-10-14T18:12:06.996Z,11.00
2022-10-14T18:14:29.453Z,10.96
2022-10-14T18:16:59.500Z,10.93
2022-10-14T18:19:27.721Z,10.93
2022-10-14T18:21:55.963Z,10.94
2022-10-14T18:24:23.895Z,10.95
2022-10-14T18:26:53.389Z,10.97
2022-10-14T18:29:21.290Z,11.00
2022-10-14T18:34:25.433Z,10.99
2022-10-14T18:36:53.463Z,10.99
2022-10-14T18:39:21.427Z,11.00
2022-10-14T18:41:49.261Z,10.99
2022-10-14T18:44:17.353Z,10.97
2022-10-14T18:46:47.642Z,10.93
2022-10-14T18:49:15.487Z,10.92
2022-10-14T18:51:43.500Z,10.89
2022-10-14T18:54:15.641Z,10.84
2022-10-14T18:56:44.630Z,10.80
2022-10-14T18:59:21.017Z,10.74
2022-10-14T19:01:53.442Z,10.68
2022-10-14T19:04:24.424Z,10.61
2022-10-14T19:06:52.379Z,10.52
2022-10-14T19:09:24.326Z,10.44
2022-10-14T19:11:52.806Z,10.36
2022-10-14T19:14:22.294Z,10.29
2022-10-14T19:16:50.509Z,10.23
2022-10-14T19:19:20.037Z,10.16
2022-10-14T19:21:51.010Z,10.07
2022-10-14T19:24:19.136Z,9.98
2022-10-14T19:26:47.833Z,9.91
2022-10-14T19:29:16.458Z,9.84
2022-10-14T19:31:44.432Z,9.75
2022-10-14T19:34:15.254Z,9.66
2022-10-14T19:36:44.039Z,9.59
2022-10-14T19:39:16.939Z,9.54
2022-10-14T19:41:46.750Z,9.51
2022-10-14T19:44:16.469Z,9.51
2022-10-14T19:46:45.355Z,9.50
2022-10-14T19:49:15.353Z,9.49
2022-10-14T19:51:44.085Z,9.46
2022-10-14T19:54:13.420Z,9.44
2022-10-14T19:56:42.029Z,9.46
2022-10-14T19:59:10.643Z,9.49
2022-10-14T20:01:38.777Z,9.51
2022-10-14T20:04:07.184Z,9.53
2022-10-14T20:06:36.679Z,9.56
2022-10-14T20:09:05.226Z,9.60
2022-10-14T20:11:34.417Z,9.63
2022-10-14T20:14:02.313Z,9.63
2022-10-14T20:16:30.480Z,9.65
2022-10-14T20:18:58.626Z,9.66
2022-10-14T20:21:26.543Z,9.68
2022-10-14T20:23:54.469Z,9.71
2022-10-14T20:26:22.412Z,9.75
2022-10-14T20:28:51.275Z,9.79
2022-10-14T20:31:23.192Z,9.83
2022-10-14T20:33:51.863Z,9.85
2022-10-14T20:36:21.671Z,9.88
2022-10-14T20:38:51.411Z,9.91
2022-10-14T20:41:21.691Z,9.91
2022-10-14T20:43:50.464Z,9.91
2022-10-14T20:46:18.924Z,9.92
2022-10-14T20:48:47.002Z,9.90
2022-10-14T20:51:17.996Z,9.87
2022-10-14T20:53:46.068Z,9.84
2022-10-14T20:56:15.244Z,9.77
2022-10-14T20:58:43.279Z,9.71
2022-10-14T21:01:16.576Z,9.62
2022-10-14T21:03:47.619Z,9.54
2022-10-14T21:06:21.150Z,9.47
2022-10-14T21:08:50.567Z,9.42
2022-10-14T21:11:21.971Z,9.37
2022-10-14T21:13:55.480Z,9.33
2022-10-14T21:16:24.659Z,9.28
2022-10-14T21:18:58.351Z,9.23
2022-10-14T21:21:28.593Z,9.19
2022-10-14T21:23:56.920Z,9.15
2022-10-14T21:26:25.481Z,9.08
2022-10-14T21:28:53.515Z,9.03
2022-10-14T21:31:22.166Z,9.00
2022-10-14T21:34:04.157Z,8.97
2022-10-14T21:36:35.233Z,8.93
2022-10-14T21:39:12.757Z,8.89
2022-10-14T21:41:42.177Z,8.86
2022-10-14T21:44:14.636Z,8.84
2022-10-14T21:46:42.662Z,8.83
2022-10-14T21:49:11.180Z,8.82
2022-10-14T21:51:53.956Z,8.81
2022-10-14T22:02:13.269Z,8.86
2022-10-14T22:04:41.202Z,8.88
2022-10-14T22:07:10.629Z,8.89
2022-10-14T22:09:38.546Z,8.88
2022-10-14T22:12:06.527Z,8.88
2022-10-14T22:14:34.493Z,8.88
2022-10-14T22:17:02.384Z,8.85
2022-10-14T22:19:30.694Z,8.84
2022-10-14T22:21:59.799Z,8.84
2022-10-14T22:24:28.275Z,8.86
2022-10-14T22:26:56.255Z,8.90
2022-10-14T22:29:24.141Z,8.91
2022-10-14T22:31:51.996Z,8.95
2022-10-14T22:34:19.935Z,8.97
2022-10-14T22:36:47.856Z,8.94
2022-10-14T22:39:17.151Z,8.94
2022-10-14T22:41:45.072Z,8.95
2022-10-14T22:44:13.037Z,8.94
2022-10-14T22:46:41.230Z,8.92
2022-10-14T22:49:09.288Z,8.93
2022-10-14T22:51:42.492Z,8.94
2022-10-14T22:54:11.062Z,8.94
2022-10-14T22:56:39.498Z,8.91
2022-10-14T22:59:11.992Z,8.86
2022-10-14T23:01:42.441Z,8.83
2022-10-14T23:04:11.602Z,8.78
2022-10-14T23:06:40.067Z,8.72
2022-10-14T23:09:10.247Z,8.69
2022-10-14T23:11:38.636Z,8.68
2022-10-14T23:14:07.585Z,8.61
2022-10-14T23:16:36.526Z,8.51
2022-10-14T23:19:04.778Z,8.39
2022-10-14T23:21:35.319Z,8.28
2022-10-14T23:24:10.337Z,8.22
2022-10-14T23:26:38.635Z,8.16
2022-10-14T23:29:09.998Z,8.08
2022-10-14T23:31:40.387Z,8.04
2022-10-14T23:34:12.481Z,8.01
2022-10-14T23:36:41.268Z,7.97
2022-10-14T23:39:09.560Z,7.92
2022-10-14T23:41:37.584Z,7.88
2022-10-14T23:44:05.671Z,7.83
2022-10-14T23:46:33.824Z,7.80
2022-10-14T23:49:07.310Z,7.78
2022-10-14T23:51:42.714Z,7.77
2022-10-14T23:54:11.666Z,7.75
2022-10-14T23:56:41.414Z,7.74
2022-10-14T23:59:09.270Z,7.74
